Aviation Digital Data Service (ADDS)

Output produced by METARs form (0012 UTC 26 April 2017)
found at http://aviationweather.gov/adds/metars/
 
KFRG 260005Z 05013KT 1 3/4SM RA BR BKN012 OVC019 11/11 A2991 RMK AO2 SFC VIS 2 P0003 T01110106
KFRG 252356Z 06013G18KT 1 3/4SM -RA BR FEW008 OVC016 11/11 A2990 RMK AO2 SFC VIS 2 1/2 P0001 T01110106
KFRG 252353Z 06012G21KT 1 3/4SM RA BR OVC006 11/11 A2990 RMK AO2 SFC VIS 2 1/2 SLP125 P0009 60038 T01110106 10133 20111 58019
KFRG 252344Z 05014G21KT 4SM -RA BR OVC006 11/11 A2990 RMK AO2 P0008 T01110106
KFRG 252320Z 05014G19KT 2 1/2SM RA BR OVC006 11/11 A2991 RMK AO2 P0006 T01110106
KISP 252356Z 06011KT 1SM R06/P6000FT -RA BR OVC007 12/12 A2992 RMK AO2 SLP129 P0010 60033 T01220122 10128 20117 58014 $
KISP 252339Z 2600/2624 06017G24KT 1SM RA BR OVC006 WS020/11045KT 
     TEMPO 2601/2605 3/4SM +RA BR 
     FM260500 07015G22KT 1SM -RA BR OVC004 WS020/14045KT 
     FM260700 09014KT 1SM -RA OVC004 
     FM260900 08011KT 1SM -RA OVC004 
     FM261600 07008KT 3SM BR OVC006 
     FM261900 05005KT 5SM BR OVC006 
     FM262300 VRB03KT 3/4SM BR OVC003
       
KJFK 252351Z 06019G27KT 3SM -RA BR BKN008 OVC017 12/11 A2989 RMK AO2 PK WND 05027/2342 SFC VIS 6 SLP120 P0012 60047 T01220111 10139 20122 55011
KJFK 252347Z 06017G27KT 3SM -RA BR BKN008 OVC017 12/11 A2989 RMK AO2 PK WND 05027/2342 SFC VIS 5 P0012
KJFK 252339Z 2600/2706 05018G26KT 3SM -RA BR OVC006 
     TEMPO 2600/2603 1SM +RA BR OVC005 
     FM260300 05012G18KT 2SM -RA BR OVC005 
     FM260700 05009KT 1SM -RA BR OVC004 
     FM261500 04008KT 3SM BR VCSH OVC007 
     FM261900 03008KT 6SM BR OVC008 
     FM270000 VRB03KT 3/4SM BR OVC003
       
KBDR 260004Z 05013KT 2SM -RA BR OVC009 12/10 A2996 RMK AO2 P0002 T01170100
KBDR 252352Z 05013KT 4SM -RA BR OVC009 12/10 A2996 RMK AO2 SLP146 P0006 60026 T01170100 10144 20117 58011
KBDR 252346Z 04014G20KT 3SM -RA BR OVC009 12/10 A2996 RMK AO2 P0006
KBDR 252339Z 2600/2624 06022G28KT 3SM RA BR OVC006 
     TEMPO 2601/2605 1SM +RA BR 
     FM260500 06016KT 1SM -RA BR OVC005 
     FM260800 05011KT 1SM -RA BR OVC004 
     FM261700 04007KT 3SM BR OVC005 
     FM262000 02005KT 5SM BR OVC006